Time;durP1;ratioP1;P1;durP2;ratioP2;P2;SDS_P1;SDS_P2;PMS_P1;PMS_P2;Temp;Humidity;BMP_temperature;BMP_pressure;BME280_temperature;BME280_humidity;BME280_pressure;Samples;Min_cycle;Max_cycle;Signal;HPM_P1;HPM_P2
2022/03/24 00:00:24;;;;;;;36.15;14.23;;;;;;;;;;4971707;28;94814;-78
2022/03/24 00:02:51;;;;;;;31.15;13.50;;;;;;;;;;4973932;28;95574;-78
2022/03/24 00:05:17;;;;;;;31.58;13.93;;;;;;;;;;4973556;28;93614;-78
2022/03/24 00:07:44;;;;;;;31.42;13.85;;;;;;;;;;4973533;28;92489;-78
2022/03/24 00:10:10;;;;;;;41.92;12.93;;;;;;;;;;4966423;28;93353;-78
2022/03/24 00:12:37;;;;;;;45.10;14.55;;;;;;;;;;4968822;28;93834;-78
2022/03/24 00:15:04;;;;;;;42.25;13.60;;;;;;;;;;4954911;28;92822;-78
2022/03/24 00:17:30;;;;;;;51.90;14.95;;;;;;;;;;4973109;28;93230;-77
2022/03/24 00:19:57;;;;;;;39.67;15.82;;;;;;;;;;4976966;28;92579;-77
2022/03/24 00:22:23;;;;;;;36.50;16.23;;;;;;;;;;4974028;28;94552;-77
2022/03/24 00:24:49;;;;;;;45.00;17.63;;;;;;;;;;4971857;28;95784;-78
2022/03/24 00:27:16;;;;;;;43.65;17.55;;;;;;;;;;4972122;28;92470;-78
2022/03/24 00:29:42;;;;;;;31.77;15.63;;;;;;;;;;4972432;28;93716;-78
2022/03/24 00:32:09;;;;;;;35.70;16.50;;;;;;;;;;4973517;28;93553;-78
2022/03/24 00:34:35;;;;;;;37.88;17.15;;;;;;;;;;4974041;28;92988;-78
2022/03/24 00:37:03;;;;;;;38.72;16.55;;;;;;;;;;4972423;28;94257;-77
2022/03/24 00:39:33;;;;;;;34.97;17.02;;;;;;;;;;4973576;28;94342;-78
2022/03/24 00:42:00;;;;;;;38.95;17.33;;;;;;;;;;4976023;28;91710;-78
2022/03/24 00:44:27;;;;;;;47.70;18.00;;;;;;;;;;4972162;28;93427;-77
2022/03/24 00:46:53;;;;;;;43.53;19.27;;;;;;;;;;4973174;28;92510;-76
2022/03/24 00:49:21;;;;;;;42.38;18.83;;;;;;;;;;4970290;28;94760;-78
2022/03/24 00:51:48;;;;;;;35.83;17.90;;;;;;;;;;4973377;28;92413;-77
2022/03/24 00:54:16;;;;;;;45.78;19.00;;;;;;;;;;4973433;28;92397;-78
2022/03/24 00:56:43;;;;;;;36.15;18.13;;;;;;;;;;4972006;28;93252;-77
2022/03/24 00:59:09;;;;;;;50.72;18.55;;;;;;;;;;4973317;28;92483;-77
2022/03/24 01:01:38;;;;;;;32.80;18.80;;;;;;;;;;4976682;28;92389;-78
2022/03/24 01:04:06;;;;;;;31.55;17.27;;;;;;;;;;4972730;28;93596;-78
2022/03/24 01:06:34;;;;;;;37.35;16.70;;;;;;;;;;4973695;28;91689;-78
2022/03/24 01:09:00;;;;;;;36.83;18.20;;;;;;;;;;4973284;28;92549;-78
2022/03/24 01:11:27;;;;;;;46.67;17.80;;;;;;;;;;4973618;28;93472;-78
2022/03/24 01:13:53;;;;;;;39.00;18.77;;;;;;;;;;4971530;28;94839;-77
2022/03/24 01:16:24;;;;;;;52.30;19.10;;;;;;;;;;4972771;28;94661;-77
2022/03/24 01:18:50;;;;;;;45.20;19.38;;;;;;;;;;4972981;28;93510;-77
2022/03/24 01:21:17;;;;;;;34.22;18.50;;;;;;;;;;4974714;28;92666;-78
2022/03/24 01:23:44;;;;;;;48.33;19.98;;;;;;;;;;4982489;28;93255;-79
2022/03/24 01:26:11;;;;;;;41.60;19.20;;;;;;;;;;4979430;28;92618;-77
2022/03/24 01:28:39;;;;;;;42.17;19.30;;;;;;;;;;4978427;28;93211;-79
2022/03/24 01:31:08;;;;;;;45.88;19.80;;;;;;;;;;4979170;28;92896;-78
2022/03/24 01:33:37;;;;;;;46.85;20.02;;;;;;;;;;4979460;28;92436;-77
2022/03/24 01:36:10;;;;;;;43.65;19.98;;;;;;;;;;4979424;28;94160;-78
2022/03/24 01:38:37;;;;;;;47.83;21.25;;;;;;;;;;4978319;28;96302;-78
2022/03/24 01:41:04;;;;;;;40.05;18.98;;;;;;;;;;4978378;28;92488;-78
2022/03/24 01:43:30;;;;;;;39.17;20.10;;;;;;;;;;4979631;28;94263;-77
2022/03/24 01:45:57;;;;;;;56.00;21.55;;;;;;;;;;4982192;28;93549;-77
2022/03/24 01:48:23;;;;;;;54.78;20.88;;;;;;;;;;4979914;28;93555;-77
2022/03/24 01:50:49;;;;;;;50.47;20.67;;;;;;;;;;4977980;28;93128;-78
2022/03/24 01:53:18;;;;;;;41.13;19.92;;;;;;;;;;4979883;28;92539;-78
2022/03/24 01:55:45;;;;;;;45.95;20.67;;;;;;;;;;4978525;28;93278;-78
2022/03/24 01:58:12;;;;;;;47.03;20.13;;;;;;;;;;4979063;28;93564;-77
2022/03/24 02:00:38;;;;;;;49.88;19.40;;;;;;;;;;4979401;28;92502;-78
2022/03/24 02:03:05;;;;;;;48.08;21.33;;;;;;;;;;4978281;28;95076;-78
2022/03/24 02:05:33;;;;;;;49.75;22.17;;;;;;;;;;4979150;28;93611;-78
2022/03/24 02:08:03;;;;;;;39.10;20.77;;;;;;;;;;4981719;28;92470;-77
2022/03/24 02:10:33;;;;;;;49.10;21.13;;;;;;;;;;4978988;28;94018;-76
2022/03/24 02:12:59;;;;;;;47.10;22.23;;;;;;;;;;4961154;28;92509;-77
2022/03/24 02:15:26;;;;;;;40.83;20.05;;;;;;;;;;4964084;28;93380;-77
2022/03/24 02:17:52;;;;;;;39.60;20.75;;;;;;;;;;4979191;28;93500;-78
2022/03/24 02:20:20;;;;;;;40.35;21.15;;;;;;;;;;4979806;28;91786;-78
2022/03/24 02:22:47;;;;;;;49.10;21.85;;;;;;;;;;4979116;28;92533;-78
2022/03/24 02:25:14;;;;;;;46.15;21.60;;;;;;;;;;4978532;28;93500;-77
2022/03/24 02:27:40;;;;;;;44.22;21.40;;;;;;;;;;4977003;28;94875;-76
2022/03/24 02:30:07;;;;;;;50.20;21.20;;;;;;;;;;4972916;28;94788;-78
2022/03/24 02:32:33;;;;;;;45.47;21.95;;;;;;;;;;4958382;28;92374;-78
2022/03/24 02:34:59;;;;;;;58.20;22.88;;;;;;;;;;4954177;28;92469;-77
2022/03/24 02:37:28;;;;;;;43.28;23.40;;;;;;;;;;4956278;28;93475;-77
2022/03/24 02:39:55;;;;;;;47.65;24.30;;;;;;;;;;4955938;28;93030;-77
2022/03/24 02:42:22;;;;;;;54.78;24.20;;;;;;;;;;4955855;28;93080;-77
2022/03/24 02:44:51;;;;;;;49.00;23.77;;;;;;;;;;4954909;28;92728;-78
2022/03/24 02:47:18;;;;;;;53.78;24.52;;;;;;;;;;4975322;28;92582;-78
2022/03/24 02:49:45;;;;;;;46.13;23.35;;;;;;;;;;4978623;28;93268;-77
2022/03/24 02:52:12;;;;;;;55.15;25.23;;;;;;;;;;4955748;28;94855;-76
2022/03/24 02:54:39;;;;;;;49.65;24.42;;;;;;;;;;4975373;28;95627;-78
2022/03/24 02:57:05;;;;;;;54.03;26.02;;;;;;;;;;4975414;28;94663;-77
2022/03/24 02:59:33;;;;;;;53.85;25.23;;;;;;;;;;4975276;28;92848;-78
2022/03/24 03:02:05;;;;;;;43.17;25.73;;;;;;;;;;4975249;28;93279;-77
2022/03/24 03:04:32;;;;;;;49.80;26.17;;;;;;;;;;4976167;28;93869;-78
2022/03/24 03:06:59;;;;;;;47.92;26.17;;;;;;;;;;4974863;28;92483;-78
2022/03/24 03:09:25;;;;;;;54.90;26.90;;;;;;;;;;4976027;28;93264;-78
2022/03/24 03:11:52;;;;;;;51.53;26.30;;;;;;;;;;4977860;28;93442;-78
2022/03/24 03:14:19;;;;;;;57.80;27.63;;;;;;;;;;4974325;28;93277;-78
2022/03/24 03:16:45;;;;;;;54.10;26.58;;;;;;;;;;4973568;28;95891;-77
2022/03/24 03:19:12;;;;;;;55.63;26.83;;;;;;;;;;4974912;28;92418;-78
2022/03/24 03:21:39;;;;;;;62.83;29.02;;;;;;;;;;4973214;28;93288;-78
2022/03/24 03:24:06;;;;;;;62.78;28.30;;;;;;;;;;4974821;28;93505;-78
2022/03/24 03:26:33;;;;;;;55.72;28.23;;;;;;;;;;4975044;28;92357;-78
2022/03/24 03:28:59;;;;;;;59.55;26.73;;;;;;;;;;4974704;28;93308;-77
2022/03/24 03:31:26;;;;;;;52.42;27.33;;;;;;;;;;4954888;28;93619;-78
2022/03/24 03:33:52;;;;;;;50.88;26.10;;;;;;;;;;4958247;28;91669;-77
2022/03/24 03:36:19;;;;;;;61.97;26.23;;;;;;;;;;4955076;28;93477;-78
2022/03/24 03:38:45;;;;;;;49.60;26.77;;;;;;;;;;4955029;28;92550;-77
2022/03/24 03:41:12;;;;;;;46.25;27.05;;;;;;;;;;4953497;28;94828;-77
2022/03/24 03:43:39;;;;;;;56.03;27.38;;;;;;;;;;4955122;28;93264;-77
2022/03/24 03:46:05;;;;;;;56.47;28.38;;;;;;;;;;4963822;28;92384;-78
2022/03/24 03:48:31;;;;;;;52.40;27.67;;;;;;;;;;4975223;28;94354;-77
2022/03/24 03:50:59;;;;;;;63.55;28.15;;;;;;;;;;4974998;28;94420;-77
2022/03/24 03:53:25;;;;;;;59.85;30.33;;;;;;;;;;4975008;28;92454;-77
2022/03/24 03:55:52;;;;;;;73.22;30.08;;;;;;;;;;4977643;28;93232;-77
2022/03/24 03:58:18;;;;;;;65.85;29.48;;;;;;;;;;4975509;28;91851;-77
2022/03/24 04:00:53;;;;;;;53.67;29.00;;;;;;;;;;4974602;28;92361;-77
2022/03/24 04:03:20;;;;;;;57.50;29.05;;;;;;;;;;4973929;28;93712;-78
2022/03/24 04:05:46;;;;;;;62.00;28.80;;;;;;;;;;4972665;28;94878;-77
2022/03/24 04:08:13;;;;;;;52.78;28.17;;;;;;;;;;4973919;28;96830;-78
2022/03/24 04:10:39;;;;;;;58.30;28.75;;;;;;;;;;4972427;28;94013;-78
2022/03/24 04:13:06;;;;;;;57.83;29.45;;;;;;;;;;4967337;28;92768;-78
2022/03/24 04:15:33;;;;;;;58.72;30.35;;;;;;;;;;4971005;28;94372;-79
2022/03/24 04:18:00;;;;;;;57.10;31.42;;;;;;;;;;4976731;28;93885;-78
2022/03/24 04:20:26;;;;;;;59.03;30.92;;;;;;;;;;4973905;28;92447;-77
2022/03/24 04:22:53;;;;;;;54.30;30.02;;;;;;;;;;4974179;28;93218;-77
2022/03/24 04:25:20;;;;;;;61.20;29.85;;;;;;;;;;4973958;28;92522;-77
2022/03/24 04:27:47;;;;;;;56.63;29.83;;;;;;;;;;4973847;28;92913;-77
2022/03/24 04:30:15;;;;;;;59.95;29.60;;;;;;;;;;4961653;28;96262;-77
2022/03/24 04:32:41;;;;;;;58.80;30.05;;;;;;;;;;4953963;28;92425;-77
2022/03/24 04:35:08;;;;;;;65.28;30.05;;;;;;;;;;4954061;28;93240;-77
2022/03/24 04:37:35;;;;;;;62.45;28.65;;;;;;;;;;4954036;28;93602;-77
2022/03/24 04:40:03;;;;;;;57.10;29.17;;;;;;;;;;4956668;28;92449;-77
2022/03/24 04:42:29;;;;;;;59.33;28.83;;;;;;;;;;4952525;28;93089;-77
2022/03/24 04:44:56;;;;;;;52.90;28.67;;;;;;;;;;4953964;28;92420;-77
2022/03/24 04:47:23;;;;;;;55.90;28.20;;;;;;;;;;4972902;28;93396;-77
2022/03/24 04:49:49;;;;;;;58.03;28.23;;;;;;;;;;4971648;28;93498;-77
2022/03/24 04:52:16;;;;;;;53.78;27.30;;;;;;;;;;4973246;28;92768;-77
2022/03/24 04:54:42;;;;;;;53.17;27.45;;;;;;;;;;4970600;28;95051;-77
2022/03/24 04:57:09;;;;;;;55.20;27.83;;;;;;;;;;4972722;28;93905;-77
2022/03/24 04:59:35;;;;;;;55.95;27.42;;;;;;;;;;4976592;28;92466;-77
2022/03/24 05:02:01;;;;;;;53.03;27.65;;;;;;;;;;4973922;28;93746;-77
2022/03/24 05:04:28;;;;;;;50.83;27.15;;;;;;;;;;4973737;28;92872;-77
2022/03/24 05:06:59;;;;;;;44.78;25.20;;;;;;;;;;4971681;28;94005;-77
2022/03/24 05:09:25;;;;;;;51.30;26.55;;;;;;;;;;4973266;28;93279;-77
2022/03/24 05:11:52;;;;;;;57.30;25.58;;;;;;;;;;4973623;28;91762;-77
2022/03/24 05:14:18;;;;;;;47.17;25.83;;;;;;;;;;4973483;28;92712;-77
2022/03/24 05:16:46;;;;;;;53.78;27.00;;;;;;;;;;4973136;28;93750;-77
2022/03/24 05:19:13;;;;;;;60.38;27.73;;;;;;;;;;4970669;28;94825;-77
2022/03/24 05:21:40;;;;;;;48.17;27.23;;;;;;;;;;4975681;28;95728;-77
2022/03/24 05:24:06;;;;;;;52.13;24.85;;;;;;;;;;4973456;28;92485;-77
2022/03/24 05:26:32;;;;;;;76.50;27.83;;;;;;;;;;4972966;28;93376;-77
2022/03/24 05:28:59;;;;;;;77.03;27.08;;;;;;;;;;4973240;28;93862;-77
2022/03/24 05:31:26;;;;;;;55.95;27.02;;;;;;;;;;4952303;28;92528;-77
2022/03/24 05:33:52;;;;;;;53.83;26.92;;;;;;;;;;4953489;28;93364;-77
2022/03/24 05:36:19;;;;;;;54.83;27.00;;;;;;;;;;4952799;28;92047;-77
2022/03/24 05:38:45;;;;;;;57.47;28.15;;;;;;;;;;4953484;28;93085;-77
2022/03/24 05:41:13;;;;;;;61.28;27.55;;;;;;;;;;4953142;28;93356;-77
2022/03/24 05:43:40;;;;;;;58.88;27.40;;;;;;;;;;4954920;28;96307;-77
2022/03/24 05:46:06;;;;;;;69.05;28.60;;;;;;;;;;4962905;28;95682;-76
2022/03/24 05:48:33;;;;;;;60.55;27.05;;;;;;;;;;4973214;28;93695;-77
2022/03/24 05:51:00;;;;;;;52.38;26.55;;;;;;;;;;4973110;28;92744;-76
2022/03/24 05:53:26;;;;;;;54.63;26.90;;;;;;;;;;4971477;28;93305;-77
2022/03/24 05:55:52;;;;;;;59.22;29.92;;;;;;;;;;4973322;28;95862;-76
2022/03/24 05:58:20;;;;;;;47.60;26.67;;;;;;;;;;4972996;28;92468;-77
2022/03/24 06:00:47;;;;;;;54.60;27.90;;;;;;;;;;4973302;28;93208;-77
2022/03/24 06:03:15;;;;;;;61.47;28.20;;;;;;;;;;4972896;28;93382;-77
2022/03/24 06:05:43;;;;;;;51.40;26.88;;;;;;;;;;4974183;28;92888;-76
2022/03/24 06:08:11;;;;;;;59.05;26.60;;;;;;;;;;4970775;28;97835;-77
2022/03/24 06:10:39;;;;;;;50.58;27.30;;;;;;;;;;4974632;28;92676;-77
2022/03/24 06:13:05;;;;;;;47.97;26.13;;;;;;;;;;4975800;28;92760;-77
2022/03/24 06:15:32;;;;;;;53.15;25.70;;;;;;;;;;4973905;28;97205;-77
2022/03/24 06:17:58;;;;;;;58.03;26.92;;;;;;;;;;4976115;28;92411;-77
2022/03/24 06:20:25;;;;;;;53.13;26.65;;;;;;;;;;4974907;28;93930;-77
2022/03/24 06:22:52;;;;;;;57.42;26.23;;;;;;;;;;4974995;28;93446;-77
2022/03/24 06:25:19;;;;;;;52.78;26.83;;;;;;;;;;4975017;28;91751;-77
2022/03/24 06:27:52;;;;;;;72.30;27.15;;;;;;;;;;4978684;28;92446;-77
2022/03/24 06:30:19;;;;;;;51.20;26.55;;;;;;;;;;4975530;28;92458;-77
2022/03/24 06:32:46;;;;;;;50.20;25.45;;;;;;;;;;4974401;28;95257;-77
2022/03/24 06:35:13;;;;;;;54.60;26.27;;;;;;;;;;4974979;28;93535;-77
2022/03/24 06:37:40;;;;;;;77.82;27.08;;;;;;;;;;4975652;28;92616;-77
2022/03/24 06:40:10;;;;;;;46.53;25.88;;;;;;;;;;4974631;28;96294;-77
2022/03/24 06:42:36;;;;;;;54.63;26.95;;;;;;;;;;4975331;28;93474;-77
2022/03/24 06:45:04;;;;;;;54.25;27.15;;;;;;;;;;4974259;28;92442;-77
2022/03/24 06:47:30;;;;;;;77.57;28.73;;;;;;;;;;4956133;28;94291;-77
2022/03/24 06:49:57;;;;;;;60.42;28.85;;;;;;;;;;4958740;28;92745;-77
2022/03/24 06:52:23;;;;;;;63.22;30.88;;;;;;;;;;4956036;28;92954;-76
2022/03/24 06:54:49;;;;;;;63.30;27.75;;;;;;;;;;4953945;28;93593;-77
2022/03/24 06:57:16;;;;;;;64.55;28.60;;;;;;;;;;4954316;28;94853;-77
2022/03/24 06:59:42;;;;;;;54.05;27.20;;;;;;;;;;4956719;28;95499;-77
2022/03/24 07:02:09;;;;;;;57.55;26.15;;;;;;;;;;4956113;28;93395;-78
2022/03/24 07:04:36;;;;;;;58.22;28.85;;;;;;;;;;4956333;28;93187;-77
2022/03/24 07:07:04;;;;;;;53.65;28.67;;;;;;;;;;4954582;28;93168;-78
2022/03/24 07:09:30;;;;;;;56.15;28.35;;;;;;;;;;4958592;28;93174;-78
2022/03/24 07:11:58;;;;;;;58.25;27.27;;;;;;;;;;4955874;28;92377;-78
2022/03/24 07:14:24;;;;;;;52.15;27.35;;;;;;;;;;4954798;28;92658;-78
2022/03/24 07:16:51;;;;;;;51.60;27.23;;;;;;;;;;4970413;28;92409;-77
2022/03/24 07:19:21;;;;;;;48.05;28.42;;;;;;;;;;4972982;28;93204;-78
2022/03/24 07:21:47;;;;;;;58.35;28.60;;;;;;;;;;4973067;28;96500;-78
2022/03/24 07:24:14;;;;;;;51.92;28.05;;;;;;;;;;4973854;28;94386;-78
2022/03/24 07:26:40;;;;;;;59.80;29.40;;;;;;;;;;4975612;28;93126;-77
2022/03/24 07:29:06;;;;;;;57.75;28.20;;;;;;;;;;4975395;28;93572;-78
2022/03/24 07:31:33;;;;;;;64.53;29.95;;;;;;;;;;4978359;28;92660;-78
2022/03/24 07:34:01;;;;;;;54.33;29.85;;;;;;;;;;4974485;28;93767;-78
2022/03/24 07:36:27;;;;;;;66.00;29.30;;;;;;;;;;4973291;28;92384;-77
2022/03/24 07:38:54;;;;;;;68.07;31.92;;;;;;;;;;4973673;28;92881;-77
2022/03/24 07:41:21;;;;;;;55.88;30.42;;;;;;;;;;4974629;28;93536;-77
2022/03/24 07:43:48;;;;;;;71.72;30.88;;;;;;;;;;4974252;28;92504;-78
2022/03/24 07:46:14;;;;;;;55.00;30.05;;;;;;;;;;4962213;28;94965;-78
2022/03/24 07:48:46;;;;;;;55.13;29.63;;;;;;;;;;4955041;28;94833;-77
2022/03/24 07:51:12;;;;;;;65.97;30.92;;;;;;;;;;4954864;28;92513;-77
2022/03/24 07:53:48;;;;;;;58.53;31.25;;;;;;;;;;4957588;28;92933;-77
2022/03/24 07:56:21;;;;;;;58.08;33.35;;;;;;;;;;4954405;28;92449;-78
2022/03/24 07:58:48;;;;;;;69.43;33.33;;;;;;;;;;4955000;28;93427;-78
2022/03/24 08:01:14;;;;;;;63.15;31.42;;;;;;;;;;4953291;28;93851;-78
2022/03/24 08:03:42;;;;;;;52.92;31.10;;;;;;;;;;4955333;28;91951;-78
2022/03/24 08:06:08;;;;;;;59.95;32.53;;;;;;;;;;4952920;28;92582;-78
2022/03/24 08:08:34;;;;;;;55.22;31.17;;;;;;;;;;4954486;28;93684;-78
2022/03/24 08:11:01;;;;;;;52.83;30.40;;;;;;;;;;4953163;28;94871;-78
2022/03/24 08:13:27;;;;;;;59.53;31.02;;;;;;;;;;4954592;28;95497;-78
2022/03/24 08:15:56;;;;;;;50.85;30.35;;;;;;;;;;4961682;28;93495;-78
2022/03/24 08:18:23;;;;;;;53.92;30.23;;;;;;;;;;4954132;28;94229;-78
2022/03/24 08:20:51;;;;;;;55.58;29.83;;;;;;;;;;4954715;28;93256;-79
2022/03/24 08:23:17;;;;;;;63.00;30.42;;;;;;;;;;4953049;28;92541;-78
2022/03/24 08:25:44;;;;;;;53.15;31.52;;;;;;;;;;4952686;28;93154;-78
2022/03/24 08:28:12;;;;;;;50.88;27.95;;;;;;;;;;4954879;28;92232;-79
2022/03/24 08:30:39;;;;;;;61.45;29.52;;;;;;;;;;4967218;28;92414;-78
2022/03/24 08:33:05;;;;;;;53.80;30.83;;;;;;;;;;4973107;28;93334;-77
2022/03/24 08:35:32;;;;;;;51.55;29.90;;;;;;;;;;4972295;28;98672;-78
2022/03/24 08:37:59;;;;;;;50.55;29.13;;;;;;;;;;4977230;28;92394;-78
2022/03/24 08:40:26;;;;;;;53.22;30.17;;;;;;;;;;4973328;28;94413;-77
2022/03/24 08:42:52;;;;;;;50.80;29.77;;;;;;;;;;4972405;28;92335;-79
2022/03/24 08:45:18;;;;;;;44.60;27.27;;;;;;;;;;4956167;28;93723;-79
2022/03/24 08:47:45;;;;;;;53.28;28.55;;;;;;;;;;4972044;28;93423;-78
2022/03/24 08:50:12;;;;;;;49.50;26.45;;;;;;;;;;4973194;28;92475;-79
2022/03/24 08:52:40;;;;;;;50.05;27.02;;;;;;;;;;4973060;28;92001;-79
2022/03/24 08:55:07;;;;;;;50.97;26.65;;;;;;;;;;4972349;28;93302;-78
2022/03/24 08:57:34;;;;;;;47.00;26.60;;;;;;;;;;4974667;28;92501;-79
2022/03/24 09:00:03;;;;;;;49.50;25.70;;;;;;;;;;4975002;28;94774;-79
2022/03/24 09:02:30;;;;;;;45.72;27.02;;;;;;;;;;4973273;28;92487;-79
2022/03/24 09:04:56;;;;;;;46.97;28.00;;;;;;;;;;4973585;28;93740;-79
2022/03/24 09:07:35;;;;;;;47.67;27.00;;;;;;;;;;4972737;28;93321;-79
2022/03/24 09:10:05;;;;;;;45.53;26.63;;;;;;;;;;4971611;28;92475;-79
2022/03/24 09:12:31;;;;;;;46.40;27.20;;;;;;;;;;4973448;28;93938;-80
2022/03/24 09:14:58;;;;;;;47.30;25.08;;;;;;;;;;4972887;28;93257;-79
2022/03/24 09:17:24;;;;;;;40.03;25.50;;;;;;;;;;4974130;28;91727;-80
2022/03/24 09:19:51;;;;;;;44.83;25.75;;;;;;;;;;4975841;28;92719;-80
2022/03/24 09:22:17;;;;;;;49.28;26.38;;;;;;;;;;4973631;28;92575;-79
2022/03/24 09:24:43;;;;;;;34.90;25.23;;;;;;;;;;4971513;28;94849;-79
2022/03/24 09:27:10;;;;;;;53.60;27.30;;;;;;;;;;4972807;28;93581;-79
2022/03/24 09:29:36;;;;;;;45.35;27.23;;;;;;;;;;4971549;28;92539;-79
2022/03/24 09:32:02;;;;;;;39.70;27.38;;;;;;;;;;4973224;28;94561;-80
2022/03/24 09:34:29;;;;;;;40.33;26.10;;;;;;;;;;4973214;28;93475;-80
2022/03/24 09:36:55;;;;;;;39.00;25.73;;;;;;;;;;4971472;28;92507;-79
2022/03/24 09:39:21;;;;;;;35.65;24.83;;;;;;;;;;4972861;28;93568;-80
2022/03/24 09:41:48;;;;;;;32.95;24.55;;;;;;;;;;4976671;28;95236;-80
2022/03/24 09:44:14;;;;;;;32.63;23.17;;;;;;;;;;4975582;28;93193;-80
2022/03/24 09:46:41;;;;;;;35.13;23.45;;;;;;;;;;4964261;28;94865;-79
2022/03/24 09:49:14;;;;;;;35.03;23.77;;;;;;;;;;4953761;28;96007;-80
2022/03/24 09:51:40;;;;;;;32.15;22.67;;;;;;;;;;4970086;28;98285;-77
2022/03/24 09:54:07;;;;;;;38.33;22.20;;;;;;;;;;4955414;28;94772;-80
2022/03/24 09:56:33;;;;;;;28.75;21.60;;;;;;;;;;4955817;28;95039;-80
2022/03/24 09:58:59;;;;;;;42.35;20.77;;;;;;;;;;4953792;28;95383;-81
2022/03/24 10:01:27;;;;;;;29.38;20.73;;;;;;;;;;4954683;28;94839;-81
2022/03/24 10:04:01;;;;;;;34.95;20.08;;;;;;;;;;4975996;28;94040;-81
2022/03/24 10:06:27;;;;;;;26.80;19.77;;;;;;;;;;4973693;28;94450;-81
2022/03/24 10:08:53;;;;;;;35.20;19.38;;;;;;;;;;4974042;28;94762;-79
2022/03/24 10:11:23;;;;;;;35.20;18.65;;;;;;;;;;4974238;28;95329;-81
2022/03/24 10:13:53;;;;;;;30.65;18.73;;;;;;;;;;4970841;28;98054;-81
2022/03/24 10:16:35;;;;;;;32.17;17.73;;;;;;;;;;4972237;28;94701;-81
2022/03/24 10:19:09;;;;;;;36.58;18.38;;;;;;;;;;4972013;28;95812;-81
2022/03/24 10:21:37;;;;;;;23.15;16.55;;;;;;;;;;4971906;28;96281;-81
2022/03/24 10:24:11;;;;;;;25.25;15.80;;;;;;;;;;4973545;28;94800;-81
2022/03/24 10:26:48;;;;;;;27.48;18.20;;;;;;;;;;4976696;28;98623;-81
2022/03/24 10:29:16;;;;;;;29.42;15.73;;;;;;;;;;4971645;28;94797;-81
2022/03/24 10:31:43;;;;;;;25.57;15.73;;;;;;;;;;4954479;28;96089;-81
2022/03/24 10:34:11;;;;;;;27.35;16.75;;;;;;;;;;4953432;28;96173;-81
2022/03/24 10:36:41;;;;;;;38.60;16.60;;;;;;;;;;4953533;28;94846;-81
2022/03/24 10:39:08;;;;;;;21.63;15.63;;;;;;;;;;4951996;28;97293;-81
2022/03/24 10:41:35;;;;;;;23.58;16.67;;;;;;;;;;4967982;28;95916;-80
2022/03/24 10:44:06;;;;;;;43.17;17.35;;;;;;;;;;4972741;28;94924;-81
2022/03/24 10:46:33;;;;;;;27.63;15.75;;;;;;;;;;4972995;28;95742;-81
2022/03/24 10:49:13;;;;;;;23.13;14.63;;;;;;;;;;4976431;28;95843;-82
2022/03/24 10:51:42;;;;;;;26.23;17.05;;;;;;;;;;4972825;28;95640;-78
2022/03/24 10:54:20;;;;;;;31.47;15.97;;;;;;;;;;4971879;28;96304;-81
2022/03/24 10:56:53;;;;;;;32.88;15.63;;;;;;;;;;4972919;28;94157;-82
2022/03/24 10:59:20;;;;;;;24.67;15.30;;;;;;;;;;4973141;28;95215;-81
2022/03/24 11:01:46;;;;;;;23.83;13.85;;;;;;;;;;4971242;28;95885;-81
2022/03/24 11:04:14;;;;;;;22.25;14.55;;;;;;;;;;4970695;28;97639;-82
2022/03/24 11:06:50;;;;;;;24.73;13.55;;;;;;;;;;4972239;28;98098;-79
2022/03/24 11:09:23;;;;;;;29.95;13.02;;;;;;;;;;4972700;28;97068;-82
2022/03/24 11:12:16;;;;;;;27.15;13.95;;;;;;;;;;4975955;28;94735;-81
2022/03/24 11:14:42;;;;;;;31.05;14.75;;;;;;;;;;4971569;28;96557;-81
2022/03/24 11:17:08;;;;;;;29.92;15.40;;;;;;;;;;4972759;28;95132;-81
2022/03/24 11:19:35;;;;;;;25.83;15.55;;;;;;;;;;4972869;28;96182;-82
2022/03/24 11:22:01;;;;;;;28.75;15.50;;;;;;;;;;4973015;28;94760;-81
2022/03/24 11:24:28;;;;;;;23.20;14.77;;;;;;;;;;4972434;28;95466;-80
2022/03/24 11:26:54;;;;;;;30.95;14.80;;;;;;;;;;4971967;28;95877;-81
2022/03/24 11:29:21;;;;;;;24.73;16.40;;;;;;;;;;4968232;28;98345;-82
2022/03/24 11:31:47;;;;;;;28.38;15.60;;;;;;;;;;4955784;28;95388;-82
2022/03/24 11:34:14;;;;;;;25.67;15.13;;;;;;;;;;4952383;28;95214;-81
2022/03/24 11:36:41;;;;;;;31.67;14.68;;;;;;;;;;4952893;28;95285;-77
2022/03/24 11:39:10;;;;;;;24.23;15.82;;;;;;;;;;4952348;28;95693;-80
2022/03/24 11:41:39;;;;;;;30.40;16.42;;;;;;;;;;4952282;28;95996;-81
2022/03/24 11:44:08;;;;;;;26.27;15.13;;;;;;;;;;4952774;28;94950;-82
2022/03/24 11:46:40;;;;;;;30.63;15.13;;;;;;;;;;4966908;28;95399;-82
2022/03/24 11:49:23;;;;;;;30.20;15.85;;;;;;;;;;4970966;28;95812;-82
2022/03/24 11:51:51;;;;;;;23.30;14.57;;;;;;;;;;4970513;28;94885;-82
2022/03/24 11:54:25;;;;;;;32.53;15.80;;;;;;;;;;4973481;28;97675;-82
2022/03/24 11:57:11;;;;;;;22.80;15.70;;;;;;;;;;4972007;28;94854;-82
2022/03/24 11:59:37;;;;;;;21.10;14.55;;;;;;;;;;4970547;28;95691;-82
2022/03/24 12:02:14;;;;;;;22.25;15.15;;;;;;;;;;4970545;28;95739;-82
2022/03/24 12:04:56;;;;;;;27.83;15.50;;;;;;;;;;4970530;28;94782;-81
2022/03/24 12:07:24;;;;;;;28.67;15.98;;;;;;;;;;4971733;28;95538;-82
2022/03/24 12:09:54;;;;;;;28.52;15.65;;;;;;;;;;4972310;28;95681;-81
2022/03/24 12:12:20;;;;;;;25.35;15.50;;;;;;;;;;4972529;28;93979;-81
2022/03/24 12:14:47;;;;;;;23.73;13.23;;;;;;;;;;4971796;28;95185;-81
2022/03/24 12:17:18;;;;;;;22.33;13.52;;;;;;;;;;4974957;28;96196;-81
2022/03/24 12:19:50;;;;;;;20.05;12.95;;;;;;;;;;4969347;28;97114;-81
2022/03/24 12:22:25;;;;;;;25.55;13.13;;;;;;;;;;4971394;28;95598;-82
2022/03/24 12:24:52;;;;;;;26.58;14.15;;;;;;;;;;4971769;28;94603;-82
2022/03/24 12:27:18;;;;;;;22.05;15.07;;;;;;;;;;4972245;28;96922;-81
2022/03/24 12:30:03;;;;;;;22.55;14.23;;;;;;;;;;4966629;28;95632;-81
2022/03/24 12:32:30;;;;;;;25.45;13.13;;;;;;;;;;4953127;28;94976;-81
2022/03/24 12:34:56;;;;;;;29.08;13.18;;;;;;;;;;4951274;28;95266;-82
2022/03/24 12:37:22;;;;;;;22.27;12.45;;;;;;;;;;4952629;28;94801;-81
2022/03/24 12:40:09;;;;;;;20.77;11.60;;;;;;;;;;4954621;28;94374;-81
2022/03/24 12:42:39;;;;;;;18.63;12.38;;;;;;;;;;4952908;28;98507;-81
2022/03/24 12:45:07;;;;;;;26.15;11.30;;;;;;;;;;4948727;28;99377;-78
2022/03/24 12:47:34;;;;;;;18.50;9.95;;;;;;;;;;4967801;28;98267;-81
2022/03/24 12:50:09;;;;;;;31.23;9.38;;;;;;;;;;4973198;28;94850;-81
2022/03/24 12:52:48;;;;;;;22.65;9.30;;;;;;;;;;4973466;28;93579;-80
2022/03/24 12:55:27;;;;;;;21.27;9.30;;;;;;;;;;4972279;28;94456;-79
2022/03/24 12:58:03;;;;;;;24.33;7.57;;;;;;;;;;4972438;28;93646;-77
2022/03/24 13:00:31;;;;;;;25.45;8.90;;;;;;;;;;4974426;28;92730;-80
2022/03/24 13:02:58;;;;;;;33.40;9.75;;;;;;;;;;4975628;28;93267;-80
2022/03/24 13:05:26;;;;;;;18.27;9.88;;;;;;;;;;4974187;28;92507;-80
2022/03/24 13:07:53;;;;;;;26.50;12.55;;;;;;;;;;4973101;28;93256;-80
2022/03/24 13:10:20;;;;;;;23.00;11.70;;;;;;;;;;4971502;28;96127;-80
2022/03/24 13:12:48;;;;;;;26.05;11.27;;;;;;;;;;4973526;28;92662;-80
2022/03/24 13:15:18;;;;;;;31.15;8.45;;;;;;;;;;4972806;28;93243;-79
2022/03/24 13:17:51;;;;;;;24.08;8.38;;;;;;;;;;4973273;28;93435;-79
2022/03/24 13:20:18;;;;;;;22.42;11.23;;;;;;;;;;4973901;28;92431;-79
2022/03/24 13:22:47;;;;;;;24.83;9.95;;;;;;;;;;4974248;28;93479;-79
2022/03/24 13:25:15;;;;;;;28.92;9.48;;;;;;;;;;4973847;28;92465;-79
2022/03/24 13:27:46;;;;;;;18.90;8.85;;;;;;;;;;4973982;28;93501;-78
2022/03/24 13:30:16;;;;;;;22.35;9.77;;;;;;;;;;4964069;28;93737;-79
2022/03/24 13:32:43;;;;;;;23.55;11.95;;;;;;;;;;4952626;28;93135;-79
2022/03/24 13:35:29;;;;;;;23.38;14.10;;;;;;;;;;4950214;28;95632;-78
2022/03/24 13:37:57;;;;;;;31.27;14.80;;;;;;;;;;4953155;28;94446;-78
2022/03/24 13:40:25;;;;;;;24.88;13.85;;;;;;;;;;4953132;28;92479;-79
2022/03/24 13:42:52;;;;;;;28.50;14.00;;;;;;;;;;4953217;28;93625;-79
2022/03/24 13:45:18;;;;;;;29.20;14.05;;;;;;;;;;4960298;28;94338;-79
2022/03/24 13:47:46;;;;;;;28.27;16.50;;;;;;;;;;4971969;28;93453;-79
2022/03/24 13:50:16;;;;;;;31.80;17.98;;;;;;;;;;4972624;28;93373;-78
2022/03/24 13:52:44;;;;;;;30.52;17.98;;;;;;;;;;4972813;28;92079;-78
2022/03/24 13:55:15;;;;;;;38.80;19.40;;;;;;;;;;4973081;28;93379;-78
2022/03/24 13:57:45;;;;;;;25.75;14.95;;;;;;;;;;4971141;28;93745;-79
2022/03/24 14:00:21;;;;;;;26.23;13.65;;;;;;;;;;4971367;28;95031;-78
2022/03/24 14:02:53;;;;;;;36.92;19.55;;;;;;;;;;4972352;28;95641;-78
2022/03/24 14:05:19;;;;;;;30.00;18.73;;;;;;;;;;4971778;28;92442;-79
2022/03/24 14:07:55;;;;;;;36.42;20.58;;;;;;;;;;4975119;28;92433;-78
2022/03/24 14:10:25;;;;;;;36.90;21.13;;;;;;;;;;4972483;28;92399;-79
2022/03/24 14:12:54;;;;;;;33.38;20.90;;;;;;;;;;4972574;28;92422;-78
2022/03/24 14:15:21;;;;;;;33.88;20.67;;;;;;;;;;4972966;28;93375;-78
2022/03/24 14:18:11;;;;;;;48.83;22.13;;;;;;;;;;4971174;28;92848;-78
2022/03/24 14:20:55;;;;;;;36.97;21.40;;;;;;;;;;4972203;28;92928;-78
2022/03/24 14:23:27;;;;;;;37.15;22.35;;;;;;;;;;4970934;28;93835;-78